Time;durP1;ratioP1;P1;durP2;ratioP2;P2;SDS_P1;SDS_P2;PMS_P1;PMS_P2;Temp;Humidity;BMP_temperature;BMP_pressure;BME280_temperature;BME280_humidity;BME280_pressure;Samples;Min_cycle;Max_cycle;Signal;HPM_P1;HPM_P2
2023/07/07 00:01:53;;;;;;;9.13;8.23;;;12.70;99.90;;;;;;4946324;29;20043;-87
2023/07/07 00:04:21;;;;;;;9.23;8.00;;;12.60;99.90;;;;;;4942378;28;20035;-87
2023/07/07 00:06:47;;;;;;;9.82;8.98;;;12.20;99.90;;;;;;4937654;28;20076;-87
2023/07/07 00:09:16;;;;;;;8.10;7.30;;;12.60;99.90;;;;;;4965945;28;20421;-87
2023/07/07 00:11:42;;;;;;;11.75;10.88;;;12.60;99.90;;;;;;4969744;28;20046;-87
2023/07/07 00:14:08;;;;;;;11.32;8.27;;;12.60;99.90;;;;;;4942366;29;20065;-86
2023/07/07 00:16:38;;;;;;;8.60;7.78;;;12.70;99.90;;;;;;4946645;29;20051;-87
2023/07/07 00:19:09;;;;;;;9.25;8.50;;;12.60;99.90;;;;;;4945884;28;20053;-87
2023/07/07 00:21:37;;;;;;;10.35;9.35;;;12.60;99.90;;;;;;4948012;28;20097;-86
2023/07/07 00:24:03;;;;;;;11.50;10.63;;;12.50;99.90;;;;;;4939702;28;20098;-87
2023/07/07 00:26:28;;;;;;;9.18;8.35;;;12.50;99.90;;;;;;4960917;28;20108;-87
2023/07/07 00:28:54;;;;;;;10.40;8.63;;;12.50;99.90;;;;;;4975921;28;20172;-87
2023/07/07 00:31:22;;;;;;;11.23;10.15;;;12.50;99.90;;;;;;4954370;28;20538;-86
2023/07/07 00:33:51;;;;;;;9.98;8.90;;;12.50;99.90;;;;;;4956570;28;20039;-87
2023/07/07 00:36:17;;;;;;;8.52;7.28;;;12.50;99.90;;;;;;4963590;28;20093;-88
2023/07/07 00:38:43;;;;;;;7.80;7.00;;;12.50;99.90;;;;;;4940430;28;20039;-87
2023/07/07 00:41:09;;;;;;;9.88;8.93;;;12.50;99.90;;;;;;4956974;28;20045;-87
2023/07/07 00:43:36;;;;;;;11.70;8.65;;;12.40;99.90;;;;;;4974302;28;20089;-87
2023/07/07 00:46:03;;;;;;;11.75;10.88;;;12.40;99.90;;;;;;4957138;28;20046;-86
2023/07/07 00:48:38;;;;;;;9.05;8.18;;;12.40;99.90;;;;;;4943475;28;20042;-87
2023/07/07 00:51:16;;;;;;;9.15;8.25;;;12.30;99.90;;;;;;4975532;28;20042;-87
2023/07/07 00:53:45;;;;;;;10.52;9.50;;;12.30;99.90;;;;;;4961830;28;20053;-87
2023/07/07 00:56:16;;;;;;;10.82;9.75;;;12.30;99.90;;;;;;4965363;28;20047;-88
2023/07/07 00:58:43;;;;;;;13.60;12.63;;;12.30;99.90;;;;;;4977586;28;20045;-88
2023/07/07 01:01:14;;;;;;;11.57;10.40;;;12.30;99.90;;;;;;4994299;28;20046;-87
2023/07/07 01:03:46;;;;;;;12.00;10.88;;;12.20;99.90;;;;;;4963837;28;20035;-88
2023/07/07 01:06:17;;;;;;;10.05;9.02;;;12.20;99.90;;;;;;4972545;28;20098;-88
2023/07/07 01:08:45;;;;;;;13.82;11.23;;;12.20;99.90;;;;;;4928818;28;20062;-88
2023/07/07 01:11:11;;;;;;;15.00;13.82;;;12.20;99.90;;;;;;4943713;28;20103;-88
2023/07/07 01:13:37;;;;;;;10.60;9.50;;;12.20;99.90;;;;;;4955925;28;20046;-88
2023/07/07 01:16:47;;;;;;;13.25;11.88;;;12.20;99.90;;;;;;4961685;28;20460;-87
2023/07/07 01:19:31;;;;;;;11.75;10.82;;;12.10;99.90;;;;;;4946438;28;20433;-88
2023/07/07 01:22:50;;;;;;;9.95;8.95;;;12.10;99.90;;;;;;4976600;28;20078;-88
2023/07/07 01:25:37;;;;;;;11.55;10.63;;;12.10;99.90;;;;;;4953756;29;20053;-89
2023/07/07 01:28:03;;;;;;;10.90;10.02;;;12.00;99.90;;;;;;4971441;28;20043;-88
2023/07/07 01:30:32;;;;;;;21.55;20.00;;;12.00;99.90;;;;;;4973073;28;20042;-88
2023/07/07 01:33:06;;;;;;;11.88;10.90;;;12.00;99.90;;;;;;4940203;28;20481;-89
2023/07/07 01:35:32;;;;;;;14.65;13.23;;;12.00;99.90;;;;;;4970220;28;20050;-88
2023/07/07 01:38:00;;;;;;;11.45;10.45;;;11.90;99.90;;;;;;4955275;28;20034;-88
2023/07/07 01:40:51;;;;;;;11.57;10.65;;;12.30;99.90;;;;;;4972022;28;20102;-89
2023/07/07 01:43:30;;;;;;;13.07;12.00;;;11.90;99.90;;;;;;4944926;29;20152;-88
2023/07/07 01:46:06;;;;;;;10.57;9.55;;;11.90;99.90;;;;;;4966557;28;20481;-87
2023/07/07 01:49:12;;;;;;;15.48;14.25;;;12.00;99.90;;;;;;4966472;28;20516;-88
2023/07/07 01:52:05;;;;;;;15.63;14.25;;;11.80;99.90;;;;;;4910201;28;20062;-88
2023/07/07 01:54:35;;;;;;;14.35;13.20;;;11.80;99.90;;;;;;4968271;28;20039;-88
2023/07/07 01:57:02;;;;;;;12.90;11.77;;;11.80;99.90;;;;;;4967659;28;20043;-88
2023/07/07 01:59:29;;;;;;;13.30;12.07;;;11.80;99.90;;;;;;4971590;28;20222;-89
2023/07/07 02:01:55;;;;;;;18.70;17.10;;;11.80;99.90;;;;;;4955249;28;20101;-88
2023/07/07 02:04:22;;;;;;;12.13;11.18;;;11.80;99.90;;;;;;4969270;28;20051;-88
2023/07/07 02:06:47;;;;;;;20.45;18.67;;;11.80;99.90;;;;;;4967172;28;20035;-88
2023/07/07 02:09:13;;;;;;;11.48;10.48;;;11.80;99.90;;;;;;4930226;28;20243;-88
2023/07/07 02:11:39;;;;;;;14.65;13.60;;;11.70;99.90;;;;;;4938714;29;20043;-88
2023/07/07 02:14:04;;;;;;;18.52;17.00;;;11.70;99.90;;;;;;4936403;29;20042;-88
2023/07/07 02:16:30;;;;;;;17.85;16.35;;;11.70;99.90;;;;;;4951886;29;20039;-88
2023/07/07 02:18:56;;;;;;;14.50;13.38;;;11.70;99.90;;;;;;4948542;28;20445;-88
2023/07/07 02:21:22;;;;;;;16.88;15.65;;;11.70;99.90;;;;;;4959755;28;20397;-89
2023/07/07 02:23:47;;;;;;;12.80;11.73;;;11.70;99.90;;;;;;4975982;28;20055;-89
2023/07/07 02:26:18;;;;;;;13.02;11.88;;;11.70;99.90;;;;;;4972606;28;20042;-88
2023/07/07 02:28:45;;;;;;;15.32;13.75;;;11.70;99.90;;;;;;4969442;28;20047;-88
2023/07/07 02:31:14;;;;;;;15.00;13.43;;;11.70;99.90;;;;;;4968074;28;20046;-89
2023/07/07 02:33:40;;;;;;;19.77;18.30;;;11.70;99.90;;;;;;4939110;28;20501;-88
2023/07/07 02:36:08;;;;;;;31.23;28.98;;;11.70;99.90;;;;;;4954822;28;20078;-88
2023/07/07 02:38:35;;;;;;;22.65;20.83;;;11.70;99.90;;;;;;4970162;28;20055;-88
2023/07/07 02:41:01;;;;;;;17.88;16.17;;;11.70;99.90;;;;;;4954005;28;20517;-88
2023/07/07 02:43:28;;;;;;;17.95;16.48;;;11.70;99.90;;;;;;4967653;28;20490;-87
2023/07/07 02:45:54;;;;;;;17.48;15.95;;;12.00;99.90;;;;;;4925765;28;20397;-88
2023/07/07 02:48:21;;;;;;;19.42;17.85;;;11.70;99.90;;;;;;4971804;28;20462;-88
2023/07/07 02:50:55;;;;;;;16.23;14.63;;;11.70;99.90;;;;;;4959970;28;20043;-89
2023/07/07 02:53:22;;;;;;;26.67;24.48;;;11.70;99.90;;;;;;4944372;28;20042;-89
2023/07/07 02:55:48;;;;;;;21.83;19.70;;;11.70;99.90;;;;;;4960278;28;20038;-88
2023/07/07 02:58:13;;;;;;;22.15;20.23;;;11.70;99.90;;;;;;4954306;29;20058;-89
2023/07/07 03:00:39;;;;;;;31.48;29.05;;;11.70;99.90;;;;;;4962244;28;20074;-88
2023/07/07 03:03:07;;;;;;;27.67;25.48;;;11.70;99.90;;;;;;4973515;28;20089;-89
2023/07/07 03:05:33;;;;;;;28.80;26.40;;;11.70;99.90;;;;;;4971449;28;20445;-89
2023/07/07 03:08:00;;;;;;;26.80;24.30;;;11.70;99.90;;;;;;4938491;28;20451;-89
2023/07/07 03:10:25;;;;;;;29.08;26.55;;;11.70;99.90;;;;;;4955857;28;20046;-88
2023/07/07 03:12:51;;;;;;;37.15;34.13;;;11.80;99.90;;;;;;4956039;28;20039;-88
2023/07/07 03:15:20;;;;;;;35.53;32.72;;;11.70;99.90;;;;;;4970965;28;20465;-89
2023/07/07 03:17:47;;;;;;;29.25;26.35;;;11.80;99.90;;;;;;4924570;28;20050;-88
2023/07/07 03:20:13;;;;;;;39.85;36.20;;;11.90;99.90;;;;;;4945918;29;20043;-88
2023/07/07 03:22:39;;;;;;;22.45;20.25;;;11.80;99.90;;;;;;4949314;28;20390;-88
2023/07/07 03:25:05;;;;;;;26.83;24.33;;;11.90;99.90;;;;;;4986475;28;20081;-88
2023/07/07 03:27:31;;;;;;;34.00;30.92;;;11.90;99.90;;;;;;4957332;28;20499;-88
2023/07/07 03:29:57;;;;;;;30.17;27.10;;;11.90;99.90;;;;;;4959412;28;20065;-88
2023/07/07 03:32:23;;;;;;;30.58;27.80;;;12.00;99.90;;;;;;4942585;28;20218;-88
2023/07/07 03:34:51;;;;;;;27.05;24.27;;;12.10;99.90;;;;;;4963236;28;20123;-88
2023/07/07 03:37:16;;;;;;;29.52;26.60;;;12.30;99.90;;;;;;4938071;28;20129;-88
2023/07/07 03:39:42;;;;;;;30.48;27.58;;;12.20;99.90;;;;;;4934576;29;20131;-88
2023/07/07 03:42:08;;;;;;;30.98;27.83;;;12.20;99.90;;;;;;4967805;28;20353;-87
2023/07/07 03:44:35;;;;;;;23.38;21.02;;;12.20;99.90;;;;;;4937889;28;20043;-88
2023/07/07 03:47:01;;;;;;;24.63;19.35;;;12.20;99.90;;;;;;4952255;28;20039;-88
2023/07/07 03:49:27;;;;;;;25.48;20.90;;;12.30;99.90;;;;;;4938047;28;20517;-89
2023/07/07 03:51:53;;;;;;;29.02;25.92;;;12.50;99.90;;;;;;4954094;28;20168;-86
2023/07/07 03:54:18;;;;;;;23.50;20.27;;;12.40;99.90;;;;;;4943209;28;20130;-88
2023/07/07 03:56:44;;;;;;;28.77;25.55;;;12.30;99.90;;;;;;4942299;28;20064;-88
2023/07/07 03:59:10;;;;;;;24.00;21.50;;;12.50;99.90;;;;;;4953409;28;20132;-88
2023/07/07 04:01:36;;;;;;;22.00;19.70;;;12.40;99.90;;;;;;4937782;28;20043;-89
2023/07/07 04:04:01;;;;;;;29.23;23.83;;;12.80;99.90;;;;;;4968339;28;20038;-89
2023/07/07 04:06:27;;;;;;;25.27;21.77;;;12.50;99.90;;;;;;4939899;28;20055;-88
2023/07/07 04:08:53;;;;;;;25.80;23.23;;;12.60;99.90;;;;;;4969766;28;20142;-88
2023/07/07 04:11:20;;;;;;;23.27;20.85;;;12.60;99.90;;;;;;4938886;28;20136;-88
2023/07/07 04:13:52;;;;;;;28.48;24.90;;;12.60;99.90;;;;;;4918428;29;20050;-88
2023/07/07 04:16:23;;;;;;;29.42;26.33;;;12.90;99.90;;;;;;4983452;28;20069;-88
2023/07/07 04:18:53;;;;;;;27.92;25.05;;;12.70;99.90;;;;;;4963618;28;20046;-88
2023/07/07 04:21:36;;;;;;;27.90;23.75;;;12.70;99.90;;;;;;4961816;28;20074;-89
2023/07/07 04:24:03;;;;;;;25.65;22.92;;;12.70;99.90;;;;;;4935077;29;20106;-88
2023/07/07 04:26:31;;;;;;;27.55;22.05;;;12.80;99.90;;;;;;4966164;28;20071;-87
2023/07/07 04:28:59;;;;;;;22.85;20.48;;;12.90;99.90;;;;;;4978278;28;20114;-88
2023/07/07 04:31:27;;;;;;;22.60;18.48;;;12.90;99.90;;;;;;4953820;29;20064;-88
2023/07/07 04:33:53;;;;;;;26.58;23.77;;;13.00;99.90;;;;;;4950806;28;20043;-88
2023/07/07 04:36:23;;;;;;;24.25;21.42;;;13.00;99.90;;;;;;4950743;29;20201;-88
2023/07/07 04:38:51;;;;;;;27.13;22.25;;;13.10;99.90;;;;;;4950061;29;20044;-90
2023/07/07 04:41:25;;;;;;;23.65;19.58;;;13.00;99.90;;;;;;4924039;29;20074;-88
2023/07/07 04:43:56;;;;;;;27.98;24.95;;;13.20;99.90;;;;;;4951482;29;20043;-89
2023/07/07 04:46:29;;;;;;;29.70;19.73;;;13.30;99.90;;;;;;4951311;29;20046;-88
2023/07/07 04:48:55;;;;;;;26.33;23.52;;;13.40;99.90;;;;;;4935622;29;20046;-88
2023/07/07 04:51:21;;;;;;;26.38;20.55;;;13.20;99.90;;;;;;4936772;29;20047;-87
2023/07/07 04:53:47;;;;;;;24.83;21.63;;;13.70;99.90;;;;;;4938990;29;20039;-87
2023/07/07 04:56:22;;;;;;;22.90;19.25;;;13.90;99.90;;;;;;4955059;29;20660;-87
2023/07/07 04:58:52;;;;;;;24.15;18.73;;;14.00;99.90;;;;;;4939024;29;20051;-88
2023/07/07 05:01:21;;;;;;;23.60;19.70;;;13.80;99.90;;;;;;4986489;28;20051;-86
2023/07/07 05:03:52;;;;;;;24.92;22.33;;;14.10;99.90;;;;;;4949963;29;20481;-87
2023/07/07 05:06:22;;;;;;;24.67;22.17;;;14.40;99.90;;;;;;4949833;29;20031;-86
2023/07/07 05:08:51;;;;;;;21.10;18.90;;;14.40;99.90;;;;;;4950595;28;20039;-87
2023/07/07 05:11:19;;;;;;;22.88;20.42;;;14.50;99.90;;;;;;4953821;29;20644;-86
2023/07/07 05:13:46;;;;;;;24.10;20.48;;;14.60;99.90;;;;;;4937758;29;20047;-87
2023/07/07 05:16:15;;;;;;;21.83;18.75;;;14.80;99.90;;;;;;4953025;29;20043;-88
2023/07/07 05:18:41;;;;;;;21.20;19.00;;;15.00;99.90;;;;;;4937057;29;20174;-87
2023/07/07 05:21:08;;;;;;;23.35;16.55;;;16.10;99.90;;;;;;4951993;29;20051;-86
2023/07/07 05:23:35;;;;;;;17.90;16.00;;;17.50;99.90;;;;;;4949569;29;20049;-85
2023/07/07 05:26:01;;;;;;;20.30;13.48;;;18.90;99.90;;;;;;4952941;28;20035;-87
2023/07/07 05:28:27;;;;;;;14.70;11.55;;;20.40;99.90;;;;;;4951526;29;20039;-85
2023/07/07 05:30:53;;;;;;;16.10;12.10;;;21.50;99.90;;;;;;4952933;28;20130;-89
2023/07/07 05:33:22;;;;;;;15.38;12.48;;;22.60;99.90;;;;;;4935536;29;20090;-85
2023/07/07 05:35:50;;;;;;;18.38;14.50;;;23.40;99.90;;;;;;4935935;29;20039;-88
2023/07/07 05:38:17;;;;;;;17.50;15.82;;;24.00;99.90;;;;;;4952817;29;20121;-91
2023/07/07 05:40:45;;;;;;;18.13;14.30;;;24.60;99.90;;;;;;4937383;29;20039;-90
2023/07/07 05:43:16;;;;;;;17.38;15.77;;;25.10;99.90;;;;;;4952766;29;20035;-87
2023/07/07 05:45:42;;;;;;;14.48;9.00;;;25.60;99.90;;;;;;4954012;28;20063;-88
2023/07/07 05:48:09;;;;;;;14.30;10.70;;;25.90;99.70;;;;;;4952016;29;20042;-87
2023/07/07 05:50:35;;;;;;;36.47;33.60;;;26.50;99.30;;;;;;4935198;29;20051;-89
2023/07/07 05:53:02;;;;;;;40.08;37.13;;;26.50;98.80;;;;;;4941588;29;20058;-88
2023/07/07 05:55:33;;;;;;;44.72;41.50;;;26.70;98.00;;;;;;4955035;29;20051;-87
2023/07/07 05:58:00;;;;;;;52.45;49.13;;;27.00;96.50;;;;;;4952496;29;20414;-89
2023/07/07 06:00:27;;;;;;;110.35;103.05;;;27.30;97.20;;;;;;4936122;29;20054;-88
2023/07/07 06:02:57;;;;;;;520.50;481.58;;;27.30;96.20;;;;;;4952036;29;20043;-86
2023/07/07 06:05:24;;;;;;;856.28;785.50;;;27.60;96.80;;;;;;4951807;29;20055;-87
2023/07/07 06:07:51;;;;;;;928.35;845.53;;;27.90;95.10;;;;;;4951673;29;20046;-88
2023/07/07 06:10:17;;;;;;;1022.45;923.63;;;28.00;95.20;;;;;;4952316;29;20039;-91
2023/07/07 06:12:43;;;;;;;1084.22;966.10;;;28.50;96.00;;;;;;4935561;29;20046;-86
2023/07/07 06:15:10;;;;;;;1798.57;999.90;;;28.90;95.60;;;;;;4935858;29;20221;-88
2023/07/07 06:17:35;;;;;;;1999.90;999.90;;;28.90;94.70;;;;;;4935032;29;20494;-87
2023/07/07 06:20:02;;;;;;;1999.90;999.90;;;28.80;94.00;;;;;;4935569;28;20054;-88
2023/07/07 06:22:28;;;;;;;1999.90;999.90;;;29.20;94.60;;;;;;4951629;29;20138;-88
2023/07/07 06:24:54;;;;;;;1999.90;999.90;;;29.30;94.60;;;;;;4951664;29;20075;-89
2023/07/07 06:27:22;;;;;;;1999.90;999.90;;;29.80;94.70;;;;;;4951309;28;20508;-86
2023/07/07 06:29:51;;;;;;;1999.90;999.90;;;30.10;93.80;;;;;;4983074;28;20062;-89
2023/07/07 06:32:17;;;;;;;1999.90;999.90;;;30.10;94.50;;;;;;4952489;28;20101;-89
2023/07/07 06:34:42;;;;;;;1999.90;999.90;;;30.40;93.60;;;;;;4936568;29;20133;-93
2023/07/07 06:37:08;;;;;;;1999.90;999.90;;;30.60;93.80;;;;;;4936234;29;20122;-90
2023/07/07 06:39:34;;;;;;;1999.90;999.90;;;30.90;93.30;;;;;;4952971;29;20042;-93
2023/07/07 06:42:01;;;;;;;1999.90;999.90;;;30.70;92.60;;;;;;4952461;29;20594;-90
2023/07/07 06:44:26;;;;;;;1999.90;999.90;;;30.80;93.00;;;;;;4952524;29;20098;-91
2023/07/07 06:46:52;;;;;;;1999.90;999.90;;;31.30;93.50;;;;;;4951501;29;20094;-90
2023/07/07 06:49:18;;;;;;;1999.90;999.90;;;31.40;92.00;;;;;;4952856;29;20046;-89
2023/07/07 06:51:47;;;;;;;1999.90;999.90;;;31.30;92.20;;;;;;4948631;29;20031;-94
2023/07/07 06:54:13;;;;;;;1999.90;999.90;;;31.60;92.30;;;;;;4964127;29;20049;-90
2023/07/07 06:56:39;;;;;;;1999.90;999.90;;;31.60;92.00;;;;;;4954167;29;20127;-90
2023/07/07 06:59:04;;;;;;;1999.90;999.90;;;31.70;92.50;;;;;;4936619;29;20146;-91
2023/07/07 07:01:30;;;;;;;1999.90;999.90;;;31.70;92.30;;;;;;4951150;29;20046;-89
2023/07/07 07:04:00;;;;;;;1999.90;999.90;;;31.90;92.40;;;;;;4935189;29;20478;-88
2023/07/07 07:06:26;;;;;;;1999.90;999.90;;;32.20;91.90;;;;;;4934831;29;20544;-90
2023/07/07 07:08:52;;;;;;;1999.90;999.90;;;31.90;92.10;;;;;;4951266;29;20039;-90
2023/07/07 07:11:21;;;;;;;1999.90;999.90;;;32.30;92.10;;;;;;4935489;29;20046;-94
2023/07/07 07:13:47;;;;;;;1999.90;999.90;;;32.20;91.80;;;;;;4936038;29;20046;-89
2023/07/07 07:16:13;;;;;;;1999.90;999.90;;;32.60;91.60;;;;;;4951719;29;20178;-88
2023/07/07 07:18:38;;;;;;;1999.90;999.90;;;33.20;91.70;;;;;;4936887;29;20043;-90
2023/07/07 07:21:04;;;;;;;1999.90;999.90;;;33.60;91.50;;;;;;4935620;29;20478;-89
2023/07/07 07:23:30;;;;;;;1999.90;999.90;;;33.60;90.70;;;;;;4967487;28;20051;-88
2023/07/07 07:25:55;;;;;;;1999.90;999.90;;;33.50;90.40;;;;;;4971207;28;20636;-89
2023/07/07 07:28:21;;;;;;;1999.90;999.90;;;33.40;89.90;;;;;;4938285;28;20043;-90
2023/07/07 07:30:48;;;;;;;1999.90;999.90;;;33.30;90.80;;;;;;4954591;28;20038;-88
2023/07/07 07:33:19;;;;;;;1999.90;999.90;;;33.10;90.10;;;;;;4937926;28;20345;-90
2023/07/07 07:35:45;;;;;;;1999.90;999.90;;;32.60;90.00;;;;;;4933857;28;20649;-86
2023/07/07 07:38:14;;;;;;;1999.90;999.90;;;32.80;90.50;;;;;;4971341;28;20075;-90
2023/07/07 07:40:40;;;;;;;1999.90;999.90;;;32.90;90.70;;;;;;4938509;28;20049;-90
2023/07/07 07:43:06;;;;;;;1970.10;893.95;;;33.00;88.90;;;;;;4959347;28;20038;-88
2023/07/07 07:45:32;;;;;;;1999.90;955.85;;;33.00;89.70;;;;;;4987435;28;20039;-89
2023/07/07 07:47:57;;;;;;;1999.90;999.90;;;33.00;88.80;;;;;;4937804;28;20545;-88
2023/07/07 07:50:24;;;;;;;1999.90;999.90;;;32.80;89.70;;;;;;4954263;28;20077;-88
2023/07/07 07:52:52;;;;;;;1999.90;999.90;;;33.30;90.30;;;;;;4937703;28;20097;-87
2023/07/07 07:55:18;;;;;;;1999.90;999.90;;;33.40;90.10;;;;;;4952970;28;20049;-88
2023/07/07 07:57:44;;;;;;;1999.90;999.90;;;33.70;88.20;;;;;;4985043;28;20031;-87
2023/07/07 08:00:11;;;;;;;1999.90;999.90;;;33.40;88.50;;;;;;4951996;28;20042;-88
2023/07/07 08:02:38;;;;;;;1999.90;999.90;;;33.50;88.40;;;;;;4952440;28;20047;-90
2023/07/07 08:05:05;;;;;;;1999.90;801.88;;;33.50;88.20;;;;;;4937188;28;20042;-87
2023/07/07 08:07:32;;;;;;;1999.90;825.58;;;33.40;88.30;;;;;;4953349;28;20505;-89
2023/07/07 08:09:58;;;;;;;1999.90;999.90;;;33.40;89.80;;;;;;4937713;28;20041;-91
2023/07/07 08:12:24;;;;;;;1999.90;999.90;;;33.50;87.10;;;;;;4953574;28;20560;-90
2023/07/07 08:14:50;;;;;;;1999.90;999.90;;;33.50;89.40;;;;;;4936633;28;20038;-89
2023/07/07 08:17:16;;;;;;;1999.90;999.90;;;33.30;88.00;;;;;;4953683;28;20047;-88
2023/07/07 08:19:43;;;;;;;1999.90;936.38;;;33.40;87.20;;;;;;4952228;28;20101;-88
2023/07/07 08:22:16;;;;;;;1999.90;999.90;;;33.60;89.70;;;;;;4952973;28;20114;-88
2023/07/07 08:24:57;;;;;;;1999.90;999.90;;;33.60;87.90;;;;;;4953310;28;20043;-88
2023/07/07 08:27:25;;;;;;;1999.90;999.90;;;33.80;86.50;;;;;;4953361;28;20126;-90
2023/07/07 08:29:51;;;;;;;1999.90;999.90;;;33.60;86.40;;;;;;4937411;28;20081;-91
2023/07/07 08:32:21;;;;;;;1999.90;999.90;;;33.50;86.60;;;;;;4937893;28;20043;-90
2023/07/07 08:34:48;;;;;;;1999.90;999.90;;;33.30;87.00;;;;;;4937788;28;20047;-87
2023/07/07 08:37:17;;;;;;;1999.90;999.90;;;33.30;86.40;;;;;;4938991;28;20047;-89
2023/07/07 08:39:44;;;;;;;1999.90;999.90;;;32.90;83.70;;;;;;4956271;28;20082;-89
2023/07/07 08:42:27;;;;;;;1999.90;999.90;;;32.60;85.80;;;;;;4939017;28;20142;-87
2023/07/07 08:44:55;;;;;;;1999.90;999.90;;;32.80;86.40;;;;;;4954656;28;20046;-89
2023/07/07 08:47:26;;;;;;;1999.90;999.90;;;32.70;86.20;;;;;;4956155;28;20134;-88
2023/07/07 08:49:59;;;;;;;1999.90;999.90;;;32.50;83.30;;;;;;4940413;28;20413;-88
2023/07/07 08:52:52;;;;;;;1999.90;999.90;;;32.50;85.00;;;;;;4940480;28;20159;-87
2023/07/07 08:56:06;;;;;;;1999.90;999.90;;;32.80;85.60;;;;;;4989306;28;20050;-89
2023/07/07 08:58:31;;;;;;;1999.90;999.90;;;33.10;86.90;;;;;;4935760;28;20624;-88
2023/07/07 09:01:07;;;;;;;1999.90;999.90;;;32.80;84.10;;;;;;4988673;28;20129;-93
2023/07/07 09:03:51;;;;;;;1999.90;999.90;;;32.30;82.90;;;;;;4989235;28;20232;-93
2023/07/07 09:06:43;;;;;;;1999.90;999.90;;;31.80;83.40;;;;;;4944277;28;20035;-89
2023/07/07 09:09:26;;;;;;;1999.90;999.90;;;31.10;83.40;;;;;;4941234;28;20043;-88
2023/07/07 09:12:13;;;;;;;1999.90;999.90;;;30.60;81.60;;;;;;4939298;28;20050;-89
2023/07/07 09:14:40;;;;;;;1999.90;999.90;;;30.60;85.20;;;;;;4957390;28;20121;-88
2023/07/07 09:17:16;;;;;;;1999.90;999.90;;;30.60;85.90;;;;;;4972306;28;20122;-83
2023/07/07 09:19:44;;;;;;;1999.90;999.90;;;30.30;86.00;;;;;;4972108;28;20444;-82
2023/07/07 09:22:32;;;;;;;1999.90;999.90;;;30.00;83.40;;;;;;4973154;28;20063;-90
2023/07/07 09:25:21;;;;;;;1999.90;999.90;;;29.80;82.90;;;;;;4940666;28;20046;-88
2023/07/07 09:28:00;;;;;;;1999.90;999.90;;;29.80;85.30;;;;;;4943062;28;20050;-90
2023/07/07 09:30:39;;;;;;;1999.90;999.90;;;29.70;86.00;;;;;;4945524;28;20096;-90
2023/07/07 09:33:07;;;;;;;1999.90;999.90;;;29.70;82.90;;;;;;4951236;28;20086;-88
2023/07/07 09:35:38;;;;;;;1999.90;999.90;;;29.60;87.10;;;;;;4947194;28;20042;-90
2023/07/07 09:38:40;;;;;;;1999.90;999.90;;;29.70;84.90;;;;;;4945327;28;20050;-94
2023/07/07 09:41:44;;;;;;;1999.90;999.90;;;29.60;83.70;;;;;;4958264;28;20042;-93
2023/07/07 09:44:28;;;;;;;1999.90;999.90;;;29.70;86.10;;;;;;4927429;28;20101;-89
2023/07/07 09:47:26;;;;;;;1999.90;999.90;;;29.70;85.00;;;;;;4956909;28;20074;-91
2023/07/07 09:50:26;;;;;;;1999.90;999.90;;;29.60;87.20;;;;;;4957209;28;20109;-92
2023/07/07 09:53:13;;;;;;;1999.90;999.90;;;29.40;83.00;;;;;;4940907;28;20400;-88
2023/07/07 09:55:40;;;;;;;1999.90;999.90;;;29.40;86.40;;;;;;4940217;28;20050;-90
2023/07/07 09:58:21;;;;;;;1999.90;999.90;;;29.60;85.80;;;;;;4940667;28;20097;-91
2023/07/07 10:00:54;;;;;;;1999.90;999.90;;;29.60;86.60;;;;;;4940135;28;20053;-91
2023/07/07 10:03:23;;;;;;;1999.90;999.90;;;29.30;86.10;;;;;;4940721;28;20058;-91
2023/07/07 10:05:54;;;;;;;1999.90;999.90;;;29.30;87.20;;;;;;4940134;28;20043;-92
2023/07/07 10:08:19;;;;;;;1999.90;999.90;;;29.60;88.00;;;;;;4956536;28;20037;-92
2023/07/07 10:10:54;;;;;;;1999.90;999.90;;;29.80;87.10;;;;;;4939478;28;20051;-92
2023/07/07 10:13:21;;;;;;;1999.90;999.90;;;29.80;83.80;;;;;;4956327;28;20049;-94
2023/07/07 10:16:02;;;;;;;1999.90;999.90;;;29.80;87.40;;;;;;4955326;28;20127;-88
2023/07/07 10:18:32;;;;;;;1999.90;999.90;;;29.90;84.10;;;;;;4938600;28;20050;-90
2023/07/07 10:21:02;;;;;;;1999.90;999.90;;;29.80;86.20;;;;;;4937684;28;20047;-87
2023/07/07 10:23:31;;;;;;;1999.90;999.90;;;29.80;85.50;;;;;;4954805;28;20405;-87
2023/07/07 10:25:56;;;;;;;1999.90;999.90;;;29.90;87.30;;;;;;4954908;28;20046;-88
2023/07/07 10:28:24;;;;;;;1999.90;999.90;;;29.90;86.80;;;;;;4943658;28;20034;-89
2023/07/07 10:30:51;;;;;;;1999.90;999.90;;;29.90;85.90;;;;;;4943895;28;20043;-88
2023/07/07 10:33:20;;;;;;;1999.90;999.90;;;29.70;85.80;;;;;;4939928;28;20185;-89
2023/07/07 10:35:46;;;;;;;1999.90;999.90;;;29.20;85.20;;;;;;4938579;28;20038;-88
2023/07/07 10:38:15;;;;;;;1999.90;999.90;;;28.90;84.50;;;;;;4954840;28;20043;-92
2023/07/07 10:40:42;;;;;;;1999.90;999.90;;;29.00;87.50;;;;;;4939597;28;20406;-93
2023/07/07 10:43:12;;;;;;;1999.90;999.90;;;29.00;86.60;;;;;;4939032;28;20050;-88
2023/07/07 10:45:38;;;;;;;1999.90;999.90;;;29.20;85.90;;;;;;4938886;28;20082;-88
2023/07/07 10:48:15;;;;;;;1999.90;999.90;;;28.80;83.90;;;;;;4938288;28;20082;-87
2023/07/07 10:51:24;;;;;;;1999.90;999.90;;;28.80;83.70;;;;;;4954899;28;20047;-90
2023/07/07 10:54:10;;;;;;;1999.90;999.90;;;28.40;84.70;;;;;;4937270;28;20506;-93
2023/07/07 10:56:47;;;;;;;1999.90;999.90;;;28.40;85.50;;;;;;4955408;28;20039;-91
2023/07/07 10:59:47;;;;;;;1999.90;999.90;;;28.30;84.60;;;;;;4955117;28;20445;-90
2023/07/07 11:02:51;;;;;;;1999.90;999.90;;;28.30;86.30;;;;;;4937400;28;20482;-87
2023/07/07 11:05:32;;;;;;;1999.90;999.90;;;28.00;85.20;;;;;;4953417;28;20515;-85
2023/07/07 11:07:57;;;;;;;1999.90;999.90;;;28.00;86.00;;;;;;4952000;28;20496;-87
2023/07/07 11:10:43;;;;;;;1999.90;999.90;;;28.00;85.50;;;;;;4969529;28;20046;-86
2023/07/07 11:13:41;;;;;;;1999.90;999.90;;;28.20;86.60;;;;;;4970562;28;20042;-86
2023/07/07 11:16:18;;;;;;;1999.90;999.90;;;28.30;85.50;;;;;;4985979;28;20043;-87
2023/07/07 11:19:07;;;;;;;1999.90;999.90;;;28.40;86.90;;;;;;4953059;28;20055;-86
2023/07/07 11:22:08;;;;;;;1999.90;999.90;;;28.60;85.80;;;;;;4968761;28;20042;-88
2023/07/07 11:25:13;;;;;;;1999.90;999.90;;;28.60;85.80;;;;;;4938831;28;20054;-87
2023/07/07 11:27:59;;;;;;;1999.90;999.90;;;28.40;85.50;;;;;;4936426;28;20086;-88
2023/07/07 11:31:03;;;;;;;1999.90;999.90;;;28.20;85.10;;;;;;4953195;28;20057;-86
2023/07/07 11:34:00;;;;;;;1999.90;999.90;;;28.10;85.20;;;;;;4970625;28;20050;-90
2023/07/07 11:36:50;;;;;;;1999.90;999.90;;;28.00;85.80;;;;;;4969389;28;20039;-87
2023/07/07 11:39:41;;;;;;;1999.90;999.90;;;28.20;84.90;;;;;;4983793;28;20053;-88
2023/07/07 11:42:22;;;;;;;1999.90;999.90;;;28.20;85.30;;;;;;4952230;28;20088;-89
2023/07/07 11:45:08;;;;;;;1999.90;999.90;;;28.20;85.80;;;;;;4936579;28;20086;-90
2023/07/07 11:48:07;;;;;;;1999.90;999.90;;;28.20;85.40;;;;;;4953817;28;20051;-88
2023/07/07 11:50:51;;;;;;;1999.90;999.90;;;28.30;87.30;;;;;;4937998;28;20228;-90
2023/07/07 11:53:23;;;;;;;1999.90;999.90;;;28.40;85.20;;;;;;4952721;28;20051;-86
2023/07/07 11:56:00;;;;;;;1542.33;999.90;;;28.40;85.20;;;;;;4936358;28;20047;-87
2023/07/07 11:58:51;;;;;;;1869.97;999.90;;;28.40;81.60;;;;;;4951649;28;20616;-87
2023/07/07 12:01:24;;;;;;;1999.90;999.90;;;28.10;83.70;;;;;;4951438;28;20394;-87
2023/07/07 12:04:05;;;;;;;1999.90;999.90;;;28.00;84.00;;;;;;4951400;28;20051;-86
2023/07/07 12:06:40;;;;;;;1999.90;999.90;;;28.00;86.10;;;;;;4951317;28;20070;-88
2023/07/07 12:09:38;;;;;;;1993.72;999.90;;;28.30;88.10;;;;;;4951984;28;20041;-89
2023/07/07 12:12:11;;;;;;;1999.90;999.90;;;28.20;82.20;;;;;;4936396;28;20234;-88
2023/07/07 12:14:47;;;;;;;1631.07;999.90;;;28.10;83.30;;;;;;4951226;28;20130;-88
2023/07/07 12:17:18;;;;;;;1811.22;999.90;;;28.20;82.50;;;;;;4951623;28;20568;-87
2023/07/07 12:19:51;;;;;;;1829.07;999.90;;;28.10;81.20;;;;;;4955054;28;20051;-88
2023/07/07 12:22:24;;;;;;;1708.43;999.90;;;28.20;85.10;;;;;;4939079;28;20050;-87
2023/07/07 12:25:02;;;;;;;1992.88;999.90;;;28.20;82.80;;;;;;4939871;28;20437;-86
2023/07/07 12:27:41;;;;;;;1375.78;999.90;;;28.20;80.30;;;;;;4955499;28;20047;-87
2023/07/07 12:30:32;;;;;;;1895.88;999.90;;;28.20;81.00;;;;;;4955838;28;20039;-86
2023/07/07 12:32:58;;;;;;;1764.15;999.90;;;28.40;82.40;;;;;;4972593;28;20049;-86
2023/07/07 12:35:43;;;;;;;1857.65;999.90;;;28.30;80.90;;;;;;4954817;28;20043;-86
2023/07/07 12:38:27;;;;;;;1999.90;999.90;;;28.40;83.00;;;;;;4938740;28;20097;-87